createdAt,value
2023-04-19T00:02:24.000Z,102299.72
2023-04-19T00:04:55.931Z,102292.13
2023-04-19T00:07:25.781Z,102277.06
2023-04-19T00:09:55.556Z,102309.66
2023-04-19T00:12:27.990Z,102314.44
2023-04-19T00:14:57.810Z,102305.03
2023-04-19T00:17:28.060Z,102309.03
2023-04-19T00:19:57.887Z,102290.16
2023-04-19T00:22:27.719Z,102281.63
2023-04-19T00:24:57.474Z,102280.91
2023-04-19T00:27:29.838Z,102300.00
2023-04-19T00:30:00.246Z,102280.41
2023-04-19T00:32:30.058Z,102293.06
2023-04-19T00:35:00.792Z,102285.81
2023-04-19T00:37:30.734Z,102276.09
2023-04-19T00:40:00.516Z,102299.88
2023-04-19T00:42:32.918Z,102295.94
2023-04-19T00:45:02.708Z,102300.09
2023-04-19T00:47:33.585Z,102294.31
2023-04-19T00:50:03.491Z,102287.78
2023-04-19T00:52:33.520Z,102277.63
2023-04-19T00:55:04.353Z,102291.25
2023-04-19T00:57:36.770Z,102290.91
2023-04-19T01:00:09.955Z,102297.34
2023-04-19T01:02:39.929Z,102293.72
2023-04-19T01:05:10.590Z,102275.56
2023-04-19T01:07:42.873Z,102297.63
2023-04-19T01:10:13.338Z,102298.25
2023-04-19T01:12:47.173Z,102258.94
2023-04-19T01:15:16.917Z,102279.66
2023-04-19T01:17:46.904Z,102281.41
2023-04-19T01:20:16.693Z,102294.94
2023-04-19T01:22:49.044Z,102296.75
2023-04-19T01:25:18.826Z,102301.25
2023-04-19T01:27:48.711Z,102293.53
2023-04-19T01:30:18.741Z,102289.22
2023-04-19T01:32:48.601Z,102293.91
2023-04-19T01:35:18.548Z,102273.41
2023-04-19T01:37:50.970Z,102267.50
2023-04-19T01:40:21.489Z,102280.69
2023-04-19T01:42:51.253Z,102279.75
2023-04-19T01:45:21.009Z,102288.44
2023-04-19T01:47:54.193Z,102280.56
2023-04-19T01:50:24.061Z,102270.50
2023-04-19T01:52:56.446Z,102239.72
2023-04-19T01:55:26.416Z,102276.25
2023-04-19T01:57:56.241Z,102286.34
2023-04-19T02:00:26.666Z,102297.06
2023-04-19T02:02:56.596Z,102290.69
2023-04-19T02:05:26.452Z,102297.50
2023-04-19T02:08:01.503Z,102277.22
2023-04-19T02:10:33.880Z,102281.16
2023-04-19T02:13:03.669Z,102267.19
2023-04-19T02:15:33.417Z,102271.41
2023-04-19T02:18:06.700Z,102289.09
2023-04-19T02:20:36.771Z,102278.06
2023-04-19T02:23:09.544Z,102295.41
2023-04-19T02:25:39.309Z,102290.94
2023-04-19T02:28:09.927Z,102278.66
2023-04-19T02:30:40.697Z,102285.34
2023-04-19T02:33:10.545Z,102278.84
2023-04-19T02:35:40.529Z,102289.13
2023-04-19T02:38:12.912Z,102300.00
2023-04-19T02:40:42.678Z,102287.19
2023-04-19T02:43:12.450Z,102289.13
2023-04-19T02:45:42.263Z,102297.47
2023-04-19T02:48:12.094Z,102304.91
2023-04-19T02:50:41.919Z,102306.03
2023-04-19T02:53:14.429Z,102311.72
2023-04-19T02:55:44.434Z,102312.84
2023-04-19T02:58:19.196Z,102295.06
2023-04-19T03:01:09.011Z,102293.84
2023-04-19T03:03:38.909Z,102309.81
2023-04-19T03:06:09.234Z,102298.25
2023-04-19T03:08:42.459Z,102296.44
2023-04-19T03:11:12.368Z,102307.78
2023-04-19T03:13:42.551Z,102307.63
2023-04-19T03:16:13.299Z,102316.78
2023-04-19T03:18:45.290Z,102297.59
2023-04-19T03:21:15.960Z,102302.78
2023-04-19T03:23:54.583Z,102300.19
2023-04-19T03:26:25.741Z,102270.41
2023-04-19T03:28:57.356Z,102289.06
2023-04-19T03:31:36.668Z,102294.84
2023-04-19T03:34:07.112Z,102301.56
2023-04-19T03:36:43.156Z,102307.25
2023-04-19T03:39:15.660Z,102298.06
2023-04-19T03:41:48.936Z,102307.44
2023-04-19T03:44:28.716Z,102298.19
2023-04-19T03:46:58.481Z,102304.53
2023-04-19T03:49:32.089Z,102291.34
2023-04-19T03:52:08.474Z,102299.56
2023-04-19T03:54:40.907Z,102305.22
2023-04-19T03:57:19.673Z,102311.81
2023-04-19T03:59:50.553Z,102308.47
2023-04-19T04:02:21.924Z,102304.19
2023-04-19T04:04:56.925Z,102309.19
2023-04-19T04:07:27.391Z,102312.47
2023-04-19T04:09:59.794Z,102316.59
2023-04-19T04:12:29.545Z,102300.88
2023-04-19T04:15:01.114Z,102317.53
2023-04-19T04:17:31.298Z,102306.34
2023-04-19T04:20:01.454Z,102241.00
2023-04-19T04:22:33.974Z,102320.06
2023-04-19T04:25:06.796Z,102281.16
2023-04-19T04:27:40.577Z,102292.19
2023-04-19T04:30:15.626Z,102313.91
2023-04-19T04:32:47.167Z,102322.69
2023-04-19T04:35:17.891Z,102320.72
2023-04-19T04:38:00.399Z,102334.34
2023-04-19T04:40:32.888Z,102324.50
2023-04-19T04:43:04.657Z,102321.84
2023-04-19T04:45:36.080Z,102312.72
2023-04-19T04:48:07.305Z,102325.63
2023-04-19T04:50:37.139Z,102328.16
2023-04-19T04:53:06.913Z,102332.19
2023-04-19T04:55:39.569Z,102327.13
2023-04-19T04:58:09.411Z,102346.22
2023-04-19T05:00:52.628Z,102321.66
2023-04-19T05:03:22.881Z,102337.88
2023-04-19T05:05:57.908Z,102331.97
2023-04-19T05:08:28.451Z,102327.13
2023-04-19T05:11:06.432Z,102327.09
2023-04-19T05:13:36.583Z,102331.84
2023-04-19T05:16:07.354Z,102343.88
2023-04-19T05:18:37.972Z,102332.84
2023-04-19T05:21:10.610Z,102343.41
2023-04-19T05:23:41.887Z,102336.59
2023-04-19T05:26:15.660Z,102346.31
2023-04-19T05:28:47.446Z,102310.63
2023-04-19T05:31:25.026Z,102324.28
2023-04-19T05:34:08.529Z,102339.44
2023-04-19T05:36:38.292Z,102341.25
2023-04-19T05:39:08.099Z,102335.63
2023-04-19T05:41:40.758Z,102332.28
2023-04-19T05:44:10.536Z,102339.22
2023-04-19T05:46:40.621Z,102315.53
2023-04-19T05:49:13.447Z,102350.53
2023-04-19T05:52:02.285Z,102316.19
2023-04-19T05:54:44.646Z,102321.19
2023-04-19T05:57:17.079Z,102334.47
2023-04-19T05:59:47.015Z,102339.41
2023-04-19T06:02:20.437Z,102326.72
2023-04-19T06:04:50.839Z,102338.13
2023-04-19T06:07:31.090Z,102324.41
2023-04-19T06:10:04.004Z,102335.97
2023-04-19T06:12:36.423Z,102340.56
2023-04-19T06:15:06.868Z,102331.69
2023-04-19T06:17:37.138Z,102293.56
2023-04-19T06:20:08.453Z,102301.53
2023-04-19T06:22:38.416Z,102322.03
2023-04-19T06:25:08.751Z,102128.66
2023-04-19T06:27:41.105Z,102331.81
2023-04-19T06:30:12.046Z,102337.38
2023-04-19T06:32:42.644Z,102338.34
2023-04-19T06:35:13.014Z,102336.97
2023-04-19T06:37:42.788Z,102322.16
2023-04-19T06:40:13.628Z,102331.78
2023-04-19T06:42:45.994Z,102327.75
2023-04-19T06:45:16.294Z,102332.31
2023-04-19T06:47:46.260Z,102328.88
2023-04-19T06:50:16.219Z,102316.34
2023-04-19T06:52:46.013Z,102323.88
2023-04-19T06:55:15.834Z,102336.09
2023-04-19T06:57:48.176Z,102264.84
2023-04-19T07:00:18.829Z,102288.75
2023-04-19T07:02:48.711Z,102299.53
2023-04-19T07:05:18.673Z,102321.91
2023-04-19T07:07:48.421Z,102301.34
2023-04-19T07:10:18.449Z,102305.00
2023-04-19T07:12:50.812Z,102288.84
2023-04-19T07:15:20.715Z,102313.94
2023-04-19T07:17:50.455Z,102284.78
2023-04-19T07:20:20.232Z,102309.88
2023-04-19T07:22:50.062Z,102295.00
2023-04-19T07:25:21.460Z,102310.03
2023-04-19T07:27:55.635Z,102307.25
2023-04-19T07:30:25.884Z,102291.19
2023-04-19T07:32:55.844Z,102297.06
2023-04-19T07:35:25.637Z,102297.94
2023-04-19T07:37:55.414Z,102267.66
2023-04-19T07:40:25.154Z,102284.19
2023-04-19T07:42:58.428Z,102222.03
2023-04-19T07:45:28.197Z,102290.41
2023-04-19T07:47:58.540Z,102259.44
2023-04-19T07:50:28.898Z,102274.03
2023-04-19T07:52:58.728Z,102269.25
2023-04-19T07:55:28.508Z,102267.03
2023-04-19T07:58:00.881Z,102266.06
2023-04-19T08:00:31.721Z,102280.66
2023-04-19T08:03:01.658Z,102250.38
2023-04-19T08:05:31.665Z,102264.88
2023-04-19T08:08:01.589Z,102263.06
2023-04-19T08:10:33.288Z,102251.66
2023-04-19T08:13:06.730Z,102233.41
2023-04-19T08:16:18.073Z,102264.94
2023-04-19T08:18:27.189Z,102260.22
2023-04-19T08:20:57.032Z,102248.53
2023-04-19T08:23:34.633Z,102236.81
2023-04-19T08:26:08.029Z,102256.56
2023-04-19T08:28:40.418Z,102198.50
2023-04-19T08:31:10.460Z,102222.66
2023-04-19T08:33:40.294Z,102241.72
2023-04-19T08:36:12.593Z,102240.72
2023-04-19T08:38:46.615Z,102210.41
2023-04-19T08:41:21.756Z,102225.44
2023-04-19T08:43:55.265Z,102170.22
2023-04-19T08:46:26.984Z,102171.97
2023-04-19T08:48:57.745Z,102223.41
2023-04-19T08:51:28.970Z,102227.13
2023-04-19T08:53:59.679Z,102218.09
2023-04-19T08:56:35.394Z,102225.09
2023-04-19T08:59:18.070Z,102218.41
2023-04-19T09:01:49.494Z,102161.22
2023-04-19T09:04:34.505Z,102211.03
2023-04-19T09:07:06.299Z,102193.75
2023-04-19T09:09:42.908Z,102181.81
2023-04-19T09:12:20.380Z,102194.38
2023-04-19T09:17:25.501Z,102170.03
2023-04-19T09:19:55.339Z,102186.97
2023-04-19T09:22:25.187Z,102185.75
2023-04-19T09:27:31.110Z,102187.94
2023-04-19T09:30:10.822Z,102191.56
2023-04-19T09:32:51.567Z,102162.56
2023-04-19T09:35:21.415Z,102165.53
2023-04-19T09:38:06.976Z,102187.31
2023-04-19T09:40:37.409Z,102165.19
2023-04-19T09:43:29.069Z,102158.41
2023-04-19T09:45:59.786Z,102161.59
2023-04-19T09:48:29.621Z,102166.00
2023-04-19T09:51:04.995Z,102145.75
2023-04-19T09:53:37.466Z,102162.56
2023-04-19T09:56:07.985Z,102149.47
2023-04-19T09:58:49.646Z,102138.59
2023-04-19T10:01:23.968Z,102106.38
2023-04-19T10:03:55.882Z,102136.75
2023-04-19T10:06:45.678Z,102136.53
2023-04-19T10:09:17.353Z,102096.28
2023-04-19T10:11:54.450Z,102123.22
2023-04-19T10:14:28.768Z,102109.06
2023-04-19T10:17:01.244Z,102118.09
2023-04-19T10:19:31.888Z,102120.03
2023-04-19T10:22:05.464Z,102074.00
2023-04-19T10:24:36.331Z,102090.13
2023-04-19T10:27:12.491Z,102113.31
2023-04-19T10:29:58.442Z,102105.72
2023-04-19T10:32:33.555Z,102101.09
2023-04-19T10:35:05.460Z,102099.06
2023-04-19T10:37:35.479Z,102091.88
2023-04-19T10:40:05.965Z,102085.59
2023-04-19T10:43:20.603Z,102056.16
2023-04-19T10:45:51.114Z,102049.16
2023-04-19T10:48:44.305Z,102078.34
2023-04-19T10:51:19.628Z,102073.22
2023-04-19T10:53:54.391Z,102015.44
2023-04-19T10:56:45.985Z,102063.38
2023-04-19T10:59:24.952Z,102023.69
2023-04-19T11:01:57.083Z,102025.97
2023-04-19T11:05:04.528Z,102021.00
2023-04-19T11:07:45.227Z,102022.53
2023-04-19T11:10:15.162Z,102030.00
2023-04-19T11:12:46.611Z,101995.88
2023-04-19T11:15:16.441Z,102008.34
2023-04-19T11:17:46.380Z,102003.03
2023-04-19T11:20:18.870Z,102003.06
2023-04-19T11:22:49.604Z,101987.75
2023-04-19T11:25:21.168Z,101984.81
2023-04-19T11:27:54.149Z,101992.47
2023-04-19T11:30:26.145Z,101975.56
2023-04-19T11:32:57.548Z,101969.66
2023-04-19T11:35:31.618Z,101969.72
2023-04-19T11:38:02.229Z,101972.50
2023-04-19T11:40:32.292Z,101972.47
2023-04-19T11:43:03.720Z,101950.59
2023-04-19T11:45:39.261Z,101953.53
2023-04-19T11:48:16.454Z,101955.56
2023-04-19T11:50:50.207Z,101960.69
2023-04-19T11:53:21.729Z,101942.91
2023-04-19T11:55:54.020Z,101959.47
2023-04-19T11:58:33.248Z,101936.59
2023-04-19T12:01:07.126Z,101934.28
2023-04-19T12:03:37.779Z,101954.78
2023-04-19T12:06:15.325Z,101893.38
2023-04-19T12:08:47.365Z,101943.16
2023-04-19T12:11:19.009Z,101939.75
2023-04-19T12:13:48.817Z,101941.16
2023-04-19T12:16:30.082Z,101913.59
2023-04-19T12:18:59.901Z,101932.72
2023-04-19T12:21:34.477Z,101935.75
2023-04-19T12:24:04.799Z,101917.72
2023-04-19T12:26:34.792Z,101900.94
2023-04-19T12:29:06.055Z,101932.28
2023-04-19T12:31:36.148Z,101912.66
2023-04-19T12:34:06.047Z,101921.44
2023-04-19T12:36:38.452Z,101920.28
2023-04-19T12:39:08.742Z,101898.38
2023-04-19T12:41:38.510Z,101881.28
2023-04-19T12:44:08.892Z,101896.75
2023-04-19T12:46:39.527Z,101907.09
2023-04-19T12:49:09.653Z,101888.91
2023-04-19T12:51:42.816Z,101895.88
2023-04-19T12:54:12.615Z,101918.75
2023-04-19T12:56:42.396Z,101911.94
2023-04-19T12:59:12.218Z,101902.59
2023-04-19T13:01:42.013Z,101902.03
2023-04-19T13:04:12.249Z,101876.94
2023-04-19T13:06:46.079Z,101893.88
2023-04-19T13:09:15.904Z,101878.59
2023-04-19T13:11:45.681Z,101881.59
2023-04-19T13:14:15.625Z,101877.97
2023-04-19T13:16:45.739Z,101872.03
2023-04-19T13:19:15.976Z,101876.72
2023-04-19T13:21:48.458Z,101867.97
2023-04-19T13:24:18.466Z,101859.91
2023-04-19T13:26:48.909Z,101875.91
2023-04-19T13:29:18.715Z,101870.91
2023-04-19T13:31:49.649Z,101875.97
2023-04-19T13:34:19.557Z,101874.75
2023-04-19T13:36:51.923Z,101854.97
2023-04-19T13:39:21.852Z,101856.16
2023-04-19T13:41:51.782Z,101855.84
2023-04-19T13:44:21.559Z,101854.38
2023-04-19T13:46:51.367Z,101869.31
2023-04-19T13:49:21.419Z,101851.38
2023-04-19T13:51:53.784Z,101850.44
2023-04-19T13:54:23.737Z,101852.59
2023-04-19T13:56:53.483Z,101856.19
2023-04-19T13:59:26.321Z,101848.59
2023-04-19T14:01:56.967Z,101849.56
2023-04-19T14:04:27.309Z,101833.47
2023-04-19T14:06:59.735Z,101847.25
2023-04-19T14:09:29.527Z,101843.84
2023-04-19T14:11:59.299Z,101834.63
2023-04-19T14:14:31.498Z,101836.53
2023-04-19T14:17:02.123Z,101826.44
2023-04-19T14:19:32.054Z,101833.63
2023-04-19T14:22:04.468Z,101839.91
2023-04-19T14:24:34.216Z,101828.13
2023-04-19T14:27:10.922Z,101824.56
2023-04-19T14:29:41.577Z,101819.72
2023-04-19T14:32:25.052Z,101811.75
2023-04-19T14:34:57.405Z,101796.59
2023-04-19T14:37:29.815Z,101821.81
2023-04-19T14:39:59.587Z,101814.88
2023-04-19T14:42:29.321Z,101822.63
2023-04-19T14:45:01.164Z,101788.22
2023-04-19T14:47:31.055Z,101819.19
2023-04-19T14:50:00.949Z,101818.84
2023-04-19T14:52:33.342Z,101809.28
2023-04-19T14:55:03.144Z,101785.53
2023-04-19T14:57:33.046Z,101798.34
2023-04-19T15:00:03.045Z,101815.22
2023-04-19T15:02:34.163Z,101807.56
2023-04-19T15:05:04.313Z,101807.63
2023-04-19T15:07:36.817Z,101800.91
2023-04-19T15:10:07.146Z,101779.63
2023-04-19T15:12:36.968Z,101797.47
2023-04-19T15:15:07.785Z,101776.09
2023-04-19T15:17:37.981Z,101803.59
2023-04-19T15:20:09.030Z,101806.91
2023-04-19T15:22:41.498Z,101746.97
2023-04-19T15:25:12.336Z,101804.00
2023-04-19T15:27:42.513Z,101806.31
2023-04-19T15:30:13.323Z,101760.00
2023-04-19T15:32:44.636Z,101803.84
2023-04-19T15:35:14.737Z,101800.72
2023-04-19T15:37:48.346Z,101804.81
2023-04-19T15:40:18.188Z,101785.28
2023-04-19T15:42:48.085Z,101782.41
2023-04-19T15:45:18.950Z,101793.31
2023-04-19T15:47:48.760Z,101775.88
2023-04-19T15:50:18.541Z,101785.69
2023-04-19T15:52:50.874Z,101783.34
2023-04-19T15:55:20.983Z,101800.91
2023-04-19T15:57:50.746Z,101799.16
2023-04-19T16:00:21.695Z,101774.69
2023-04-19T16:02:51.914Z,101811.38
2023-04-19T16:05:25.093Z,101804.38
2023-04-19T16:08:07.761Z,101803.25
2023-04-19T16:10:39.134Z,101790.91
2023-04-19T16:13:09.401Z,101801.03
2023-04-19T16:15:39.307Z,101796.16
2023-04-19T16:18:09.204Z,101784.88
2023-04-19T16:20:39.630Z,101792.41
2023-04-19T16:23:12.212Z,101781.00
2023-04-19T16:25:42.050Z,101794.34
2023-04-19T16:28:11.866Z,101778.06
2023-04-19T16:30:41.706Z,101787.53
2023-04-19T16:33:11.558Z,101761.94
2023-04-19T16:35:41.454Z,101781.84
2023-04-19T16:38:14.093Z,101779.56
2023-04-19T16:40:46.437Z,101762.25
2023-04-19T16:43:16.310Z,101768.22
2023-04-19T16:45:46.171Z,101791.00
2023-04-19T16:48:16.222Z,101789.72
2023-04-19T16:50:46.553Z,101783.84
2023-04-19T16:53:18.883Z,101796.03
2023-04-19T16:55:48.643Z,101775.56
2023-04-19T16:58:18.448Z,101787.19
2023-04-19T17:00:48.461Z,101783.75
2023-04-19T17:03:18.858Z,101789.97
2023-04-19T17:05:48.769Z,101780.19
2023-04-19T17:08:22.373Z,101770.25
2023-04-19T17:10:52.395Z,101775.56
2023-04-19T17:13:22.222Z,101784.72
2023-04-19T17:15:52.107Z,101772.22
2023-04-19T17:18:22.357Z,101778.84
2023-04-19T17:20:52.333Z,101758.88
2023-04-19T17:23:24.773Z,101768.97
2023-04-19T17:25:54.526Z,101774.34
2023-04-19T17:28:24.394Z,101742.88
2023-04-19T17:30:54.177Z,101782.31
2023-04-19T17:33:23.971Z,101781.00
2023-04-19T17:35:53.840Z,101778.50
2023-04-19T17:38:26.322Z,101767.81
2023-04-19T17:40:56.096Z,101778.16
2023-04-19T17:43:26.396Z,101776.41
2023-04-19T17:45:56.209Z,101777.75
2023-04-19T17:48:26.101Z,101779.28
2023-04-19T17:50:56.278Z,101765.72
2023-04-19T17:53:28.781Z,101759.84
2023-04-19T17:55:58.920Z,101781.22
2023-04-19T17:58:28.825Z,101773.72
2023-04-19T18:00:58.835Z,101783.16
2023-04-19T18:03:28.734Z,101768.38
2023-04-19T18:05:58.518Z,101778.47
2023-04-19T18:08:30.872Z,101770.13
2023-04-19T18:11:00.623Z,101779.34
2023-04-19T18:13:31.448Z,101742.69
2023-04-19T18:16:01.248Z,101770.00
2023-04-19T18:18:31.114Z,101778.63
2023-04-19T18:21:01.122Z,101768.13
2023-04-19T18:23:33.617Z,101777.06
2023-04-19T18:26:04.899Z,101786.22
2023-04-19T18:28:35.833Z,101793.59
2023-04-19T18:31:05.654Z,101788.88
2023-04-19T18:33:35.533Z,101778.94
2023-04-19T18:36:05.282Z,101791.84
2023-04-19T18:38:37.903Z,101791.75
2023-04-19T18:41:07.628Z,101795.28
2023-04-19T18:43:37.409Z,101776.19
2023-04-19T18:46:07.158Z,101783.84
2023-04-19T18:48:36.965Z,101796.28
2023-04-19T18:51:07.345Z,101795.22
2023-04-19T18:53:40.026Z,101792.59
2023-04-19T18:56:10.245Z,101799.31
2023-04-19T18:58:40.090Z,101805.44
2023-04-19T19:01:12.252Z,101815.66
2023-04-19T19:06:16.124Z,101815.22
2023-04-19T19:08:50.447Z,101821.53
2023-04-19T19:11:46.957Z,101782.84
2023-04-19T19:14:10.196Z,101816.38
2023-04-19T19:16:50.888Z,101825.31
2023-04-19T19:19:22.794Z,101827.63
2023-04-19T19:21:52.908Z,101813.22
2023-04-19T19:24:25.616Z,101809.38
2023-04-19T19:26:55.635Z,101824.94
2023-04-19T19:29:25.621Z,101824.81
2023-04-19T19:31:55.877Z,101818.28
2023-04-19T19:34:30.207Z,101798.97
2023-04-19T19:37:00.489Z,101806.34
2023-04-19T19:39:32.930Z,101798.63
2023-04-19T19:42:06.447Z,101802.66
2023-04-19T19:44:36.781Z,101806.44
2023-04-19T19:47:10.256Z,101806.41
2023-04-19T19:50:00.808Z,101801.38
2023-04-19T19:52:32.155Z,101788.56
2023-04-19T19:55:04.674Z,101792.75
2023-04-19T20:02:55.028Z,101791.50
2023-04-19T20:05:26.390Z,101814.69
2023-04-19T20:08:08.489Z,101796.28
2023-04-19T20:10:43.428Z,101803.84
2023-04-19T20:13:13.398Z,101792.50
2023-04-19T20:15:47.343Z,101775.22
2023-04-19T20:18:17.185Z,101799.53
2023-04-19T20:20:46.998Z,101808.16
2023-04-19T20:23:18.168Z,101815.09
2023-04-19T20:25:52.079Z,101808.53
2023-04-19T20:28:21.918Z,101810.34
2023-04-19T20:30:54.036Z,101790.56
2023-04-19T20:33:23.831Z,101756.38
2023-04-19T20:35:54.236Z,101749.16
2023-04-19T20:38:24.555Z,101770.69
2023-04-19T20:40:57.215Z,101736.63
2023-04-19T20:43:27.129Z,101750.84
2023-04-19T20:45:56.947Z,101757.13
2023-04-19T20:48:26.848Z,101753.69
2023-04-19T20:50:56.607Z,101719.94
2023-04-19T20:53:26.439Z,101742.31
2023-04-19T20:55:58.719Z,101734.81
2023-04-19T20:58:28.613Z,101704.28
2023-04-19T21:00:58.553Z,101730.28
2023-04-19T21:03:28.552Z,101721.06
2023-04-19T21:05:58.413Z,101692.50
2023-04-19T21:08:28.167Z,101722.38
2023-04-19T21:11:00.832Z,101704.03
2023-04-19T21:13:30.642Z,101730.53
2023-04-19T21:16:00.718Z,101713.06
2023-04-19T21:18:31.135Z,101708.03
2023-04-19T21:21:01.402Z,101730.16
2023-04-19T21:23:31.258Z,101724.69
2023-04-19T21:26:04.689Z,101720.03
2023-04-19T21:28:36.868Z,101713.97
2023-04-19T21:31:06.709Z,101712.00
2023-04-19T21:33:36.565Z,101724.16
2023-04-19T21:36:06.960Z,101704.19
2023-04-19T21:38:37.214Z,101682.81
2023-04-19T21:41:11.012Z,101695.44
2023-04-19T21:43:40.840Z,101673.50
2023-04-19T21:46:10.612Z,101695.56
2023-04-19T21:48:40.697Z,101678.41
2023-04-19T21:51:10.589Z,101694.81
2023-04-19T21:53:40.316Z,101687.13
2023-04-19T21:56:12.789Z,101685.31
2023-04-19T21:58:42.621Z,101667.47
2023-04-19T22:01:12.539Z,101666.22
2023-04-19T22:03:42.971Z,101675.31
2023-04-19T22:06:14.090Z,101650.28
2023-04-19T22:08:44.346Z,101655.78
2023-04-19T22:11:16.708Z,101663.69
2023-04-19T22:13:47.215Z,101646.75
2023-04-19T22:16:17.214Z,101635.31
2023-04-19T22:18:46.986Z,101638.75
2023-04-19T22:21:16.883Z,101652.00
2023-04-19T22:23:46.656Z,101599.09
2023-04-19T22:26:19.039Z,101623.31
2023-04-19T22:28:48.785Z,101616.81
2023-04-19T22:31:18.516Z,101640.25
2023-04-19T22:33:48.396Z,101633.50
2023-04-19T22:36:18.180Z,101626.72
2023-04-19T22:38:48.031Z,101620.50
2023-04-19T22:41:20.477Z,101593.69
2023-04-19T22:43:50.234Z,101611.63
2023-04-19T22:46:20.090Z,101609.16
2023-04-19T22:48:50.741Z,101614.19
2023-04-19T22:51:20.725Z,101613.81
2023-04-19T22:53:50.732Z,101610.56
2023-04-19T22:56:23.053Z,101578.69
2023-04-19T22:58:52.836Z,101594.94
2023-04-19T23:01:22.578Z,101588.25
2023-04-19T23:03:52.423Z,101593.81
2023-04-19T23:06:22.184Z,101591.44
2023-04-19T23:08:51.899Z,101588.34
2023-04-19T23:11:25.055Z,101562.34
2023-04-19T23:13:55.698Z,101564.28
2023-04-19T23:16:26.254Z,101580.91
2023-04-19T23:18:56.941Z,101588.59
2023-04-19T23:21:26.694Z,101578.16
2023-04-19T23:23:56.440Z,101574.25
2023-04-19T23:26:30.170Z,101554.56
2023-04-19T23:28:59.951Z,101560.91
2023-04-19T23:31:29.738Z,101571.47
2023-04-19T23:33:59.490Z,101568.88
2023-04-19T23:36:29.242Z,101562.53
2023-04-19T23:38:59.000Z,101558.34
2023-04-19T23:41:31.330Z,101568.84
2023-04-19T23:44:01.201Z,101564.69
2023-04-19T23:46:31.086Z,101566.72
2023-04-19T23:49:00.871Z,101552.78
2023-04-19T23:51:30.974Z,101560.88
2023-04-19T23:54:00.781Z,101567.31
2023-04-19T23:56:33.111Z,101571.44
2023-04-19T23:59:02.828Z,101573.47
